Time;durP1;ratioP1;P1;durP2;ratioP2;P2;SDS_P1;SDS_P2;PMS_P1;PMS_P2;Temp;Humidity;BMP_temperature;BMP_pressure;BME280_temperature;BME280_humidity;BME280_pressure;Samples;Min_cycle;Max_cycle;Signal;HPM_P1;HPM_P2
2023/08/09 00:02:17;;;;;;;3.60;2.10;;;;;;;19.11;88.77;99972.91;5067791;28;20119;-63
2023/08/09 00:04:42;;;;;;;3.33;1.50;;;;;;;19.11;88.91;99975.63;5080082;28;20028;-62
2023/08/09 00:07:08;;;;;;;5.22;2.10;;;;;;;19.08;89.41;99978.50;5080186;28;20174;-62
2023/08/09 00:09:33;;;;;;;3.53;1.83;;;;;;;19.09;89.59;99972.16;5059995;28;20120;-62
2023/08/09 00:11:58;;;;;;;4.88;1.88;;;;;;;19.08;90.10;99965.00;5050225;28;20036;-62
2023/08/09 00:14:24;;;;;;;2.85;1.50;;;;;;;19.05;90.27;99958.00;5049880;28;20028;-61
2023/08/09 00:16:49;;;;;;;5.13;2.25;;;;;;;19.05;90.71;99958.00;5064240;28;20145;-61
2023/08/09 00:19:14;;;;;;;3.13;1.73;;;;;;;19.06;91.05;99954.31;5048021;28;20032;-62
2023/08/09 00:21:40;;;;;;;6.70;2.00;;;;;;;19.01;91.68;99934.06;5048202;28;20392;-62
2023/08/09 00:24:05;;;;;;;6.60;1.90;;;;;;;19.03;91.16;99937.50;5060604;28;20040;-63
2023/08/09 00:26:31;;;;;;;5.53;1.90;;;;;;;18.99;91.00;99941.38;5067686;28;20032;-62
2023/08/09 00:28:56;;;;;;;5.00;1.85;;;;;;;18.98;91.53;99937.81;5066470;28;20020;-63
2023/08/09 00:31:22;;;;;;;4.32;1.80;;;;;;;19.00;91.61;99938.59;5051505;28;20036;-62
2023/08/09 00:33:48;;;;;;;4.20;2.08;;;;;;;18.99;91.38;99925.22;5051424;28;20025;-62
2023/08/09 00:36:15;;;;;;;5.80;1.90;;;;;;;19.02;91.05;99933.97;5053951;28;20108;-63
2023/08/09 00:38:41;;;;;;;4.07;1.92;;;;;;;19.01;91.42;99934.91;5051425;28;20033;-63
2023/08/09 00:41:06;;;;;;;4.03;1.63;;;;;;;18.99;90.68;99936.88;5051117;28;20040;-63
2023/08/09 00:43:32;;;;;;;3.17;1.65;;;;;;;19.04;91.38;99941.94;5060937;28;20105;-62
2023/08/09 00:45:57;;;;;;;5.80;2.00;;;;;;;18.98;90.87;99937.81;5068002;28;20052;-64
2023/08/09 00:48:24;;;;;;;4.70;1.70;;;;;;;18.97;91.62;99946.00;5070411;28;20106;-63
2023/08/09 00:50:49;;;;;;;3.78;1.73;;;;;;;18.99;91.47;99933.31;5058300;28;20184;-63
2023/08/09 00:53:15;;;;;;;6.78;1.70;;;;;;;18.95;91.46;99931.75;5056138;28;20028;-63
2023/08/09 00:55:41;;;;;;;4.25;1.90;;;;;;;18.92;91.16;99930.16;5069230;28;20503;-63
2023/08/09 00:58:06;;;;;;;5.00;2.10;;;;;;;18.96;90.82;99930.81;5068244;28;20055;-62
2023/08/09 01:00:37;;;;;;;4.03;2.00;;;;;;;18.95;90.44;99934.47;5052663;28;20037;-62
2023/08/09 01:03:03;;;;;;;5.55;2.10;;;;;;;18.96;90.43;99941.59;5050960;28;20045;-63
2023/08/09 01:06:02;;;;;;;5.75;2.00;;;;;;;18.93;91.78;99947.22;5056657;28;20102;-63
2023/08/09 01:08:40;;;;;;;3.38;1.85;;;;;;;18.90;91.67;99952.78;5073125;28;20044;-63
2023/08/09 01:11:13;;;;;;;4.53;2.08;;;;;;;18.89;92.04;99945.66;5083765;28;20032;-63
2023/08/09 01:13:40;;;;;;;4.18;1.73;;;;;;;18.86;92.41;99954.81;5082340;28;20646;-63
2023/08/09 01:16:07;;;;;;;6.32;2.17;;;;;;;18.83;92.63;99941.53;5087975;28;20031;-63
2023/08/09 01:18:34;;;;;;;3.67;1.90;;;;;;;18.83;92.66;99938.84;5090247;28;20107;-62
2023/08/09 01:21:01;;;;;;;4.07;1.75;;;;;;;18.84;93.36;99945.13;5079178;28;20048;-62
2023/08/09 01:23:39;;;;;;;5.03;1.95;;;;;;;18.80;93.14;99935.50;5071021;28;20021;-62
2023/08/09 01:26:05;;;;;;;5.38;1.95;;;;;;;18.76;92.48;99934.00;5078826;28;20024;-62
2023/08/09 01:28:31;;;;;;;4.15;1.80;;;;;;;18.75;92.40;99934.94;5090793;28;20105;-63
2023/08/09 01:30:57;;;;;;;7.68;2.53;;;;;;;18.78;93.12;99929.38;5083850;28;20027;-63
2023/08/09 01:33:23;;;;;;;5.18;1.60;;;;;;;18.77;92.52;99924.94;5090188;28;20028;-62
2023/08/09 01:35:55;;;;;;;7.22;2.28;;;;;;;18.75;91.45;99916.06;5082076;28;20628;-62
2023/08/09 01:38:26;;;;;;;4.38;1.75;;;;;;;18.74;91.17;99927.84;5072181;28;20060;-63
2023/08/09 01:40:52;;;;;;;4.25;1.45;;;;;;;18.70;91.59;99932.56;5069372;28;20066;-62
2023/08/09 01:43:18;;;;;;;4.28;1.95;;;;;;;18.72;92.19;99944.09;5074475;28;20078;-62
2023/08/09 01:45:43;;;;;;;5.43;1.90;;;;;;;18.75;92.57;99943.91;5076330;28;20055;-62
2023/08/09 01:48:09;;;;;;;3.30;1.75;;;;;;;18.78;92.08;99948.22;5067746;28;20020;-63
2023/08/09 01:50:35;;;;;;;3.45;1.50;;;;;;;18.79;92.22;99952.66;5070576;28;20435;-63
2023/08/09 01:53:01;;;;;;;6.65;2.03;;;;;;;18.77;91.91;99951.88;5067447;28;20016;-63
2023/08/09 01:55:27;;;;;;;4.90;1.98;;;;;;;18.74;91.94;99952.09;5078735;28;20228;-63
2023/08/09 01:57:53;;;;;;;3.38;2.00;;;;;;;18.69;91.16;99944.31;5086131;28;20024;-62
2023/08/09 02:00:20;;;;;;;3.65;1.80;;;;;;;18.73;90.95;99944.97;5076493;28;20055;-63
2023/08/09 02:02:50;;;;;;;3.75;1.98;;;;;;;18.74;91.79;99931.41;5089859;28;20723;-62
2023/08/09 02:05:16;;;;;;;4.05;1.83;;;;;;;18.75;91.30;99937.63;5076791;28;20743;-62
2023/08/09 02:07:42;;;;;;;4.03;1.90;;;;;;;18.67;91.50;99923.81;5069425;28;20568;-61
2023/08/09 02:10:10;;;;;;;4.07;1.95;;;;;;;18.65;91.30;99925.78;5069335;28;20059;-62
2023/08/09 02:12:38;;;;;;;5.85;2.15;;;;;;;18.68;91.09;99936.34;5086628;28;20031;-63
2023/08/09 02:15:05;;;;;;;3.28;1.73;;;;;;;18.68;91.49;99944.44;5089504;28;20432;-62
2023/08/09 02:17:31;;;;;;;3.47;2.10;;;;;;;18.69;90.62;99940.75;5080245;28;20043;-62
2023/08/09 02:19:56;;;;;;;5.13;1.85;;;;;;;18.68;90.42;99949.81;5069661;28;20024;-62
2023/08/09 02:22:22;;;;;;;3.08;1.60;;;;;;;18.68;89.95;99937.19;5069644;28;20483;-61
2023/08/09 02:24:47;;;;;;;4.10;1.80;;;;;;;18.69;89.86;99938.06;5070024;28;20033;-63
2023/08/09 02:27:13;;;;;;;3.80;1.73;;;;;;;18.65;89.83;99931.16;5078862;28;20089;-62
2023/08/09 02:29:39;;;;;;;4.10;1.50;;;;;;;18.65;89.65;99931.16;5069301;28;20067;-62
2023/08/09 02:32:05;;;;;;;2.97;1.50;;;;;;;18.65;90.27;99933.84;5069005;28;20032;-62
2023/08/09 02:34:30;;;;;;;2.25;1.55;;;;;;;18.63;90.00;99927.69;5071097;28;20037;-62
2023/08/09 02:36:56;;;;;;;2.83;1.27;;;;;;;18.63;90.30;99927.69;5068925;28;20044;-64
2023/08/09 02:39:22;;;;;;;6.28;1.80;;;;;;;18.59;91.12;99931.53;5075233;28;20024;-62
2023/08/09 02:41:48;;;;;;;4.85;1.77;;;;;;;18.60;91.18;99933.28;5086146;28;20544;-63
2023/08/09 02:44:14;;;;;;;3.05;1.52;;;;;;;18.56;91.59;99932.63;5068365;28;20024;-62
2023/08/09 02:46:40;;;;;;;3.30;1.65;;;;;;;18.57;91.42;99933.47;5083197;28;20042;-62
2023/08/09 02:49:05;;;;;;;4.38;1.90;;;;;;;18.55;91.33;99930.03;5068062;28;20024;-62
2023/08/09 02:51:32;;;;;;;3.97;1.70;;;;;;;18.52;92.11;99932.94;5069035;28;20393;-63
2023/08/09 02:54:05;;;;;;;8.00;1.92;;;;;;;18.51;91.71;99928.50;5069804;28;20032;-62
2023/08/09 02:56:32;;;;;;;4.30;1.67;;;;;;;18.47;91.74;99927.00;5079603;28;20035;-62
2023/08/09 02:58:58;;;;;;;3.60;1.75;;;;;;;18.51;91.80;99923.13;5088678;28;20139;-62
2023/08/09 03:01:24;;;;;;;2.70;1.75;;;;;;;18.49;91.74;99930.44;5086115;28;20053;-62
2023/08/09 03:03:50;;;;;;;3.83;1.70;;;;;;;18.50;92.07;99924.09;5088444;28;20027;-62
2023/08/09 03:06:23;;;;;;;3.30;1.60;;;;;;;18.50;91.53;99921.41;5084829;28;20056;-62
2023/08/09 03:08:49;;;;;;;5.63;1.85;;;;;;;18.51;91.14;99921.28;5068951;28;20170;-62
2023/08/09 03:11:15;;;;;;;3.78;1.90;;;;;;;18.53;91.26;99922.06;5068657;28;20074;-62
2023/08/09 03:13:40;;;;;;;4.22;1.88;;;;;;;18.56;91.19;99931.75;5070905;28;20557;-62
2023/08/09 03:16:07;;;;;;;2.78;1.55;;;;;;;18.56;91.34;99929.06;5084332;28;20134;-62
2023/08/09 03:18:32;;;;;;;6.03;1.95;;;;;;;18.57;91.41;99928.09;5084372;28;20035;-62
2023/08/09 03:20:58;;;;;;;6.47;1.92;;;;;;;18.55;91.33;99925.50;5088141;28;20028;-61
2023/08/09 03:23:23;;;;;;;5.90;2.10;;;;;;;18.57;91.13;99938.84;5081259;28;20016;-62
2023/08/09 03:25:49;;;;;;;8.90;1.88;;;;;;;18.60;91.31;99938.69;5054044;28;20028;-62
2023/08/09 03:28:14;;;;;;;14.52;3.17;;;;;;;18.61;91.58;99935.00;5048812;28;20043;-62
2023/08/09 03:30:39;;;;;;;16.67;3.25;;;;;;;18.62;91.28;99939.41;5067875;28;20080;-61
2023/08/09 03:33:05;;;;;;;7.55;2.58;;;;;;;18.63;91.71;99943.88;5067062;28;20024;-62
2023/08/09 03:35:30;;;;;;;5.80;2.20;;;;;;;18.62;91.95;99947.50;5071188;28;20145;-63
2023/08/09 03:37:56;;;;;;;4.05;2.05;;;;;;;18.58;91.64;99946.00;5086929;28;20085;-63
2023/08/09 03:40:21;;;;;;;4.78;2.15;;;;;;;18.58;92.01;99946.00;5074778;28;20035;-63
2023/08/09 03:42:47;;;;;;;8.80;2.13;;;;;;;18.58;91.45;99946.00;5070044;28;20514;-63
2023/08/09 03:45:12;;;;;;;9.80;2.50;;;;;;;18.58;91.90;99940.59;5070511;28;20017;-62
2023/08/09 03:47:38;;;;;;;3.60;1.65;;;;;;;18.59;91.97;99948.59;5070823;28;20392;-62
2023/08/09 03:50:05;;;;;;;4.82;2.20;;;;;;;18.57;92.77;99955.91;5080088;28;20068;-63
2023/08/09 03:52:31;;;;;;;4.30;1.85;;;;;;;18.57;92.42;99946.94;5088213;28;20507;-63
2023/08/09 03:54:57;;;;;;;5.65;1.90;;;;;;;18.60;92.33;99952.16;5088317;28;20059;-61
2023/08/09 03:57:22;;;;;;;3.30;1.90;;;;;;;18.60;91.82;99952.16;5073415;28;20060;-61
2023/08/09 03:59:49;;;;;;;8.18;2.28;;;;;;;18.59;91.99;99958.50;5067435;28;20043;-62
2023/08/09 04:02:15;;;;;;;5.32;2.00;;;;;;;18.59;92.36;99964.75;5087076;28;20031;-62
2023/08/09 04:04:41;;;;;;;3.75;1.85;;;;;;;18.60;91.91;99969.16;5078820;28;20024;-62
2023/08/09 04:07:06;;;;;;;3.47;1.95;;;;;;;18.61;92.21;99973.59;5079393;28;20056;-64
2023/08/09 04:09:32;;;;;;;2.72;1.83;;;;;;;18.57;92.33;99973.88;5071095;28;20108;-63
2023/08/09 04:11:59;;;;;;;6.40;2.38;;;;;;;18.57;92.35;99976.56;5067726;28;20033;-62
2023/08/09 04:14:25;;;;;;;3.40;1.80;;;;;;;18.59;91.72;99974.66;5071720;28;20032;-61
2023/08/09 04:16:51;;;;;;;4.80;1.95;;;;;;;18.60;91.84;99971.84;5068097;28;20119;-62
2023/08/09 04:19:16;;;;;;;4.50;1.88;;;;;;;18.62;92.05;99977.13;5071318;28;20111;-61
2023/08/09 04:21:42;;;;;;;8.57;2.10;;;;;;;18.65;91.92;99971.56;5070415;28;20541;-62
2023/08/09 04:24:09;;;;;;;3.03;1.60;;;;;;;18.68;92.07;99976.75;5070397;28;20020;-62
2023/08/09 04:26:35;;;;;;;5.22;2.33;;;;;;;18.70;92.17;99974.84;5055513;28;20111;-62
2023/08/09 04:29:01;;;;;;;3.28;1.80;;;;;;;18.67;92.33;99983.09;5052972;28;20025;-62
2023/08/09 04:31:26;;;;;;;3.15;1.70;;;;;;;18.69;91.77;99981.16;5060825;28;20082;-62
2023/08/09 04:33:52;;;;;;;3.35;1.65;;;;;;;18.69;90.91;99981.16;5030802;28;20029;-61
2023/08/09 04:36:18;;;;;;;7.38;2.33;;;;;;;18.67;91.10;99969.63;5049136;28;20115;-63
2023/08/09 04:38:44;;;;;;;3.83;1.73;;;;;;;18.64;90.33;99964.44;5051335;28;20112;-62
2023/08/09 04:41:10;;;;;;;3.20;1.90;;;;;;;18.65;90.04;99974.28;5050929;28;20040;-61
2023/08/09 04:43:39;;;;;;;4.88;2.03;;;;;;;18.71;90.05;99980.13;5063180;28;20472;-61
2023/08/09 04:46:04;;;;;;;3.97;1.85;;;;;;;18.73;90.32;99988.09;5067412;28;20048;-62
2023/08/09 04:48:30;;;;;;;3.35;1.85;;;;;;;18.69;90.41;99982.03;5071291;28;20362;-61
2023/08/09 04:50:56;;;;;;;2.58;1.60;;;;;;;18.72;90.57;99987.22;5066720;28;20046;-62
2023/08/09 04:53:21;;;;;;;5.05;1.65;;;;;;;18.72;90.35;99983.66;5051032;28;20061;-62
2023/08/09 04:55:47;;;;;;;8.55;2.10;;;;;;;18.73;90.37;99980.00;5064831;28;20035;-62
2023/08/09 04:58:12;;;;;;;7.70;1.95;;;;;;;18.70;90.44;99975.66;5070528;28;20033;-62
2023/08/09 05:00:38;;;;;;;3.65;1.88;;;;;;;18.76;90.27;99983.38;5062590;28;20028;-62
2023/08/09 05:03:04;;;;;;;3.50;1.55;;;;;;;18.77;90.54;99973.44;5064261;28;20040;-63
2023/08/09 05:05:30;;;;;;;6.30;2.03;;;;;;;18.74;89.97;99979.91;5069123;28;20108;-61
2023/08/09 05:07:56;;;;;;;6.00;1.73;;;;;;;18.75;89.33;99980.75;5082816;28;20162;-63
2023/08/09 05:10:22;;;;;;;3.53;1.63;;;;;;;18.78;89.22;99986.81;5090675;28;20040;-62
2023/08/09 05:12:47;;;;;;;3.25;1.73;;;;;;;18.78;88.63;99980.56;5079122;28;20090;-62
2023/08/09 05:15:12;;;;;;;5.22;2.13;;;;;;;18.81;88.39;99991.16;5075794;28;20019;-62
2023/08/09 05:17:38;;;;;;;5.28;1.70;;;;;;;18.84;88.70;99985.53;5090663;28;20035;-62
2023/08/09 05:20:04;;;;;;;4.05;1.50;;;;;;;18.83;88.31;99983.81;5089988;28;20055;-62
2023/08/09 05:22:29;;;;;;;7.40;2.20;;;;;;;18.83;88.54;99991.91;5080750;28;20173;-62
2023/08/09 05:24:55;;;;;;;5.00;1.83;;;;;;;18.85;88.14;99995.34;5053406;28;20020;-62
2023/08/09 05:27:20;;;;;;;9.30;1.73;;;;;;;18.83;88.55;100006.22;5069460;28;20085;-61
2023/08/09 05:29:45;;;;;;;5.10;1.90;;;;;;;18.80;88.53;100005.56;5078934;28;20503;-63
2023/08/09 05:32:11;;;;;;;6.47;1.75;;;;;;;18.84;89.47;100007.09;5088871;28;20097;-62
2023/08/09 05:34:37;;;;;;;3.95;1.90;;;;;;;18.81;89.03;100007.31;5087445;28;20043;-62
2023/08/09 05:37:03;;;;;;;6.55;1.90;;;;;;;18.81;89.23;100004.63;5070264;28;20029;-61
2023/08/09 05:39:29;;;;;;;5.85;1.90;;;;;;;18.84;88.89;100001.72;5076793;28;20040;-62
2023/08/09 05:41:54;;;;;;;4.30;1.50;;;;;;;18.87;88.52;100001.50;5081006;28;20024;-61
2023/08/09 05:44:20;;;;;;;4.25;1.60;;;;;;;18.95;87.90;100001.84;5084785;28;20154;-62
2023/08/09 05:46:45;;;;;;;3.20;1.60;;;;;;;19.01;87.56;100005.00;5087223;28;20020;-63
2023/08/09 05:49:10;;;;;;;2.65;1.40;;;;;;;19.04;87.42;100010.22;5070129;28;20020;-61
2023/08/09 05:51:36;;;;;;;3.55;1.67;;;;;;;19.07;86.83;100012.69;5069981;28;20044;-62
2023/08/09 05:54:01;;;;;;;5.93;1.80;;;;;;;18.98;86.33;99972.88;5072101;28;20399;-62
2023/08/09 05:56:27;;;;;;;6.70;1.83;;;;;;;19.23;86.32;100009.81;5083751;28;20082;-61
2023/08/09 05:58:52;;;;;;;3.30;2.05;;;;;;;19.33;85.98;100010.94;5059148;28;20115;-61
2023/08/09 06:01:18;;;;;;;3.80;1.52;;;;;;;19.36;85.17;100017.00;5088011;28;20032;-62
2023/08/09 06:03:43;;;;;;;3.38;1.52;;;;;;;19.42;85.53;100010.34;5071719;28;20016;-61
2023/08/09 06:06:13;;;;;;;2.95;1.65;;;;;;;19.48;85.52;100007.19;5089227;28;20103;-62
2023/08/09 06:08:39;;;;;;;5.68;1.65;;;;;;;19.54;85.52;100014.88;5066678;28;20047;-62
2023/08/09 06:11:05;;;;;;;3.67;2.63;;;;;;;19.59;85.33;100010.00;5066866;28;20033;-62
2023/08/09 06:13:31;;;;;;;5.13;2.08;;;;;;;19.59;85.42;100018.09;5049539;28;20205;-61
2023/08/09 06:15:57;;;;;;;4.75;2.10;;;;;;;19.70;85.78;100026.34;5055767;28;20029;-62
2023/08/09 06:18:23;;;;;;;4.10;1.63;;;;;;;19.76;85.57;100033.13;5067721;28;20643;-62
2023/08/09 06:20:48;;;;;;;3.63;1.67;;;;;;;19.80;85.95;100032.84;5062222;28;20044;-63
2023/08/09 06:23:15;;;;;;;3.45;1.70;;;;;;;19.79;86.28;100032.91;5048775;28;20585;-61
2023/08/09 06:25:41;;;;;;;3.63;1.90;;;;;;;19.75;86.68;100028.72;5050392;28;20493;-62
2023/08/09 06:28:07;;;;;;;3.00;1.30;;;;;;;19.78;85.80;100048.28;5048125;28;20058;-63
2023/08/09 06:30:33;;;;;;;5.15;2.10;;;;;;;19.85;85.73;100041.44;5048865;28;20151;-62
2023/08/09 06:32:59;;;;;;;3.55;1.88;;;;;;;19.87;87.08;100038.66;5049007;28;20174;-62
2023/08/09 06:35:24;;;;;;;4.18;1.60;;;;;;;19.89;86.73;100025.91;5051532;28;20032;-62
2023/08/09 06:37:51;;;;;;;8.60;2.08;;;;;;;20.10;86.50;100030.66;5049115;28;20024;-62
2023/08/09 06:40:17;;;;;;;3.70;1.70;;;;;;;20.27;85.79;100038.47;5061744;28;20699;-63
2023/08/09 06:42:43;;;;;;;2.92;1.25;;;;;;;20.39;85.48;100036.72;5051212;28;20032;-62
2023/08/09 06:45:10;;;;;;;3.90;1.75;;;;;;;20.48;84.62;100039.59;5056051;28;20090;-63
2023/08/09 06:47:35;;;;;;;3.35;1.70;;;;;;;20.53;84.16;100034.72;5049154;28;20029;-61
2023/08/09 06:50:03;;;;;;;5.07;2.08;;;;;;;20.55;83.67;100040.88;5064770;28;20028;-61
2023/08/09 06:52:28;;;;;;;3.25;1.75;;;;;;;20.55;84.47;100043.59;5068250;28;20730;-61
2023/08/09 06:54:53;;;;;;;6.40;2.13;;;;;;;20.63;84.68;100033.06;5067930;28;20020;-62
2023/08/09 06:57:19;;;;;;;3.90;1.58;;;;;;;20.73;84.03;100036.84;5051900;28;20044;-62
2023/08/09 06:59:45;;;;;;;5.80;2.03;;;;;;;20.85;83.61;100032.34;5047715;28;20029;-62
2023/08/09 07:02:10;;;;;;;7.07;2.03;;;;;;;21.06;82.92;100030.78;5050411;28;20048;-61
2023/08/09 07:04:36;;;;;;;8.75;1.98;;;;;;;21.19;81.99;100038.81;5048322;28;20028;-62
2023/08/09 07:07:02;;;;;;;3.50;1.73;;;;;;;21.35;81.21;100039.41;5059921;28;20040;-61
2023/08/09 07:09:28;;;;;;;7.65;1.80;;;;;;;21.45;81.13;100046.69;5059556;28;20408;-62
2023/08/09 07:11:53;;;;;;;5.13;2.00;;;;;;;21.53;80.40;100055.09;5062739;28;20045;-62
2023/08/09 07:14:18;;;;;;;5.20;1.98;;;;;;;21.58;79.32;100046.63;5067006;28;20029;-62
2023/08/09 07:16:44;;;;;;;4.30;1.80;;;;;;;21.59;79.00;100062.75;5058713;28;20035;-62
2023/08/09 07:19:10;;;;;;;4.47;1.52;;;;;;;21.62;79.45;100058.94;5067256;28;20111;-61
2023/08/09 07:21:35;;;;;;;4.65;2.03;;;;;;;21.74;79.88;100063.41;5057322;28;20025;-61
2023/08/09 07:24:01;;;;;;;3.78;1.60;;;;;;;21.83;78.80;100063.59;5059339;28;20066;-62
2023/08/09 07:26:27;;;;;;;4.25;1.55;;;;;;;21.81;77.67;100070.13;5063959;28;20059;-62
2023/08/09 07:28:52;;;;;;;5.28;2.03;;;;;;;21.84;77.99;100069.88;5049520;28;20032;-62
2023/08/09 07:31:20;;;;;;;3.22;1.58;;;;;;;21.85;78.02;100082.41;5048700;28;20059;-61
2023/08/09 07:33:46;;;;;;;8.35;1.83;;;;;;;21.76;77.05;100072.28;5048520;28;20028;-61
2023/08/09 07:36:12;;;;;;;3.42;1.40;;;;;;;21.71;78.48;100075.31;5054504;28;20126;-62
2023/08/09 07:38:37;;;;;;;4.82;1.70;;;;;;;21.60;79.81;100066.28;5068020;28;20641;-62
2023/08/09 07:41:03;;;;;;;3.83;1.88;;;;;;;21.59;79.47;100080.81;5067201;28;20499;-62
2023/08/09 07:43:29;;;;;;;3.40;2.15;;;;;;;21.51;79.64;100072.44;5067847;28;20017;-61
2023/08/09 07:45:54;;;;;;;3.47;1.75;;;;;;;21.58;79.38;100081.81;5059417;28;20033;-62
2023/08/09 07:48:20;;;;;;;4.18;1.65;;;;;;;21.67;80.41;100089.22;5064232;28;20048;-62
2023/08/09 07:50:46;;;;;;;6.85;1.80;;;;;;;21.79;79.95;100088.31;5064277;28;20107;-62
2023/08/09 07:53:12;;;;;;;7.60;1.85;;;;;;;21.93;79.58;100094.38;5059903;28;20472;-62
2023/08/09 07:55:39;;;;;;;5.75;1.60;;;;;;;22.09;78.78;100097.63;5067499;28;20024;-62
2023/08/09 07:58:05;;;;;;;4.25;1.50;;;;;;;22.30;78.23;100097.78;5055299;28;20037;-61
2023/08/09 08:00:31;;;;;;;5.40;1.67;;;;;;;22.45;78.21;100110.13;5062619;28;20558;-61
2023/08/09 08:02:56;;;;;;;3.95;1.52;;;;;;;22.60;77.36;100108.91;5056677;28;20499;-63
2023/08/09 08:05:22;;;;;;;3.38;1.67;;;;;;;22.57;75.71;100113.75;5064441;28;20039;-62
2023/08/09 08:07:47;;;;;;;2.25;1.20;;;;;;;22.61;75.59;100116.06;5066622;28;20501;-62
2023/08/09 08:10:16;;;;;;;6.97;1.60;;;;;;;22.77;74.51;100121.97;5082804;28;20043;-62
2023/08/09 08:12:44;;;;;;;8.25;1.90;;;;;;;22.93;73.59;100122.44;5082245;28;20115;-63
2023/08/09 08:15:10;;;;;;;5.38;1.30;;;;;;;22.99;74.38;100132.81;5077283;28;20368;-62
2023/08/09 08:17:35;;;;;;;4.47;1.50;;;;;;;22.96;74.24;100133.06;5085680;28;20127;-61
2023/08/09 08:20:03;;;;;;;3.42;1.52;;;;;;;22.87;75.44;100133.81;5073553;28;20194;-60
2023/08/09 08:22:28;;;;;;;4.13;1.35;;;;;;;22.69;73.09;100123.56;5068167;28;20021;-63
2023/08/09 08:24:54;;;;;;;3.55;1.45;;;;;;;22.49;72.99;100127.00;5073106;28;20031;-61
2023/08/09 08:27:20;;;;;;;5.57;1.70;;;;;;;22.32;72.24;100139.19;5068904;28;20036;-61
2023/08/09 08:29:45;;;;;;;5.07;1.52;;;;;;;22.25;72.50;100139.78;5067929;28;20024;-62
2023/08/09 08:32:11;;;;;;;3.00;1.33;;;;;;;22.33;73.54;100132.78;5068718;28;20029;-61
2023/08/09 08:34:37;;;;;;;5.30;1.25;;;;;;;22.47;73.34;100137.94;5072465;28;20110;-62
2023/08/09 08:37:04;;;;;;;1.92;1.10;;;;;;;22.48;73.91;100128.84;5084955;28;20563;-61
2023/08/09 08:39:35;;;;;;;3.88;1.30;;;;;;;22.38;73.27;100135.97;5087437;28;20112;-62
2023/08/09 08:42:01;;;;;;;2.00;1.10;;;;;;;22.32;72.43;100127.47;5068897;28;20116;-61
2023/08/09 08:44:26;;;;;;;2.25;1.00;;;;;;;22.36;72.47;100121.69;5079641;28;20040;-60
2023/08/09 08:46:52;;;;;;;3.42;1.35;;;;;;;22.59;72.25;100139.72;5087562;28;20051;-61
2023/08/09 08:49:23;;;;;;;4.00;1.30;;;;;;;22.68;72.97;100128.16;5089113;28;20040;-63
2023/08/09 08:51:52;;;;;;;4.80;2.42;;;;;;;22.67;71.40;100144.56;5080282;28;20024;-62
2023/08/09 08:54:18;;;;;;;3.63;1.48;;;;;;;22.64;71.40;100145.66;5076132;28;20032;-62
2023/08/09 08:56:44;;;;;;;3.15;1.52;;;;;;;22.77;71.68;100154.53;5091210;28;20054;-61
2023/08/09 08:59:11;;;;;;;3.22;1.38;;;;;;;22.82;72.64;100144.16;5091229;28;20551;-61
2023/08/09 09:01:37;;;;;;;3.85;1.50;;;;;;;22.85;72.35;100146.63;5086956;28;20058;-62
2023/08/09 09:04:03;;;;;;;5.47;1.60;;;;;;;22.90;71.92;100144.41;5089560;28;20110;-61
2023/08/09 09:06:29;;;;;;;7.90;1.20;;;;;;;22.99;71.22;100142.81;5089655;28;20056;-61
2023/08/09 09:08:55;;;;;;;3.08;1.30;;;;;;;23.11;69.74;100147.22;5089450;28;20056;-62
2023/08/09 09:11:24;;;;;;;4.38;1.50;;;;;;;23.13;69.61;100146.09;5084211;28;20031;-60
2023/08/09 09:13:51;;;;;;;3.28;1.50;;;;;;;23.21;69.57;100151.75;5088913;28;20020;-61
2023/08/09 09:16:18;;;;;;;1.65;1.13;;;;;;;23.31;69.04;100147.34;5089432;28;20035;-62
2023/08/09 09:18:48;;;;;;;3.38;1.25;;;;;;;23.34;67.99;100152.50;5083094;28;20024;-61
2023/08/09 09:21:19;;;;;;;3.83;1.40;;;;;;;23.44;68.03;100156.19;5089697;28;20111;-62
2023/08/09 09:23:45;;;;;;;3.63;1.58;;;;;;;23.58;69.84;100160.47;5087037;28;20464;-61
2023/08/09 09:26:15;;;;;;;4.25;1.38;;;;;;;23.54;68.00;100155.44;5086919;28;20039;-61
2023/08/09 09:28:46;;;;;;;3.65;1.40;;;;;;;23.59;68.14;100158.63;5089178;28;20032;-61
2023/08/09 09:31:13;;;;;;;5.93;1.33;;;;;;;23.68;67.68;100153.28;5082799;28;20040;-61
2023/08/09 09:33:43;;;;;;;2.15;1.15;;;;;;;23.85;68.39;100149.13;5083648;28;20471;-60
2023/08/09 09:36:12;;;;;;;3.38;1.10;;;;;;;23.99;67.36;100151.56;5086928;28;20090;-61
2023/08/09 09:38:39;;;;;;;2.33;1.10;;;;;;;24.19;66.17;100150.72;5089360;28;20031;-61
2023/08/09 09:41:07;;;;;;;8.05;1.50;;;;;;;24.42;65.79;100149.56;5079393;28;20027;-62
2023/08/09 09:43:37;;;;;;;5.10;1.42;;;;;;;24.65;65.35;100151.13;5070576;28;20771;-62
2023/08/09 09:46:02;;;;;;;2.97;1.00;;;;;;;24.85;63.76;100147.56;5086919;28;20106;-61
2023/08/09 09:48:29;;;;;;;3.60;1.23;;;;;;;24.93;64.83;100155.88;5070822;28;20138;-61
2023/08/09 09:50:55;;;;;;;2.35;1.20;;;;;;;24.72;62.96;100152.38;5086451;28;20024;-62
2023/08/09 09:53:21;;;;;;;2.00;0.88;;;;;;;24.62;63.04;100162.28;5072323;28;20033;-62
2023/08/09 09:55:47;;;;;;;3.40;1.10;;;;;;;24.64;64.45;100163.03;5069383;28;20028;-61
2023/08/09 09:58:13;;;;;;;1.98;1.10;;;;;;;24.78;63.89;100154.53;5074039;28;20028;-62
2023/08/09 10:00:49;;;;;;;3.92;1.20;;;;;;;24.70;63.22;100159.78;5075778;28;20024;-61
2023/08/09 10:03:17;;;;;;;3.15;1.20;;;;;;;24.83;65.37;100159.59;5088238;28;20016;-61
2023/08/09 10:05:45;;;;;;;2.53;1.30;;;;;;;24.92;63.14;100161.47;5088874;28;20619;-61
2023/08/09 10:08:13;;;;;;;2.70;1.20;;;;;;;24.95;63.42;100153.91;5084071;28;20083;-61
2023/08/09 10:10:41;;;;;;;4.38;1.30;;;;;;;25.03;64.22;100155.91;5076031;28;20039;-62
2023/08/09 10:13:07;;;;;;;3.85;1.30;;;;;;;25.07;62.65;100155.53;5089922;28;20032;-62
2023/08/09 10:15:42;;;;;;;4.18;1.33;;;;;;;25.00;63.05;100151.63;5090025;28;20411;-62
2023/08/09 10:18:23;;;;;;;2.10;1.38;;;;;;;24.94;65.54;100163.06;5075575;28;20071;-61
2023/08/09 10:20:52;;;;;;;3.92;1.33;;;;;;;25.13;64.69;100162.25;5086807;28;20236;-60
2023/08/09 10:23:22;;;;;;;1.80;1.00;;;;;;;25.26;64.72;100155.56;5081933;28;20032;-62
2023/08/09 10:25:48;;;;;;;2.25;1.30;;;;;;;25.55;61.62;100156.50;5080979;28;20032;-62
2023/08/09 10:28:14;;;;;;;1.98;1.00;;;;;;;25.72;63.58;100158.56;5080148;28;20574;-62
2023/08/09 10:30:51;;;;;;;1.88;1.13;;;;;;;25.90;61.22;100151.38;5080242;28;20112;-63
2023/08/09 10:33:20;;;;;;;2.60;1.20;;;;;;;25.87;61.27;100159.84;5083545;28;20043;-61
2023/08/09 10:35:50;;;;;;;4.03;1.15;;;;;;;25.59;59.60;100157.09;5083571;28;20044;-62
2023/08/09 10:38:39;;;;;;;3.58;1.25;;;;;;;25.28;60.84;100158.16;5080062;28;20050;-62
2023/08/09 10:41:09;;;;;;;3.85;1.10;;;;;;;25.05;61.95;100152.06;5084873;28;20032;-62
2023/08/09 10:43:35;;;;;;;2.55;1.00;;;;;;;25.08;63.57;100157.25;5072745;28;20065;-61
2023/08/09 10:46:23;;;;;;;3.70;1.10;;;;;;;25.16;62.58;100151.09;5077244;28;20501;-62
2023/08/09 10:48:50;;;;;;;2.40;1.05;;;;;;;25.22;62.49;100148.66;5075949;28;20392;-64
2023/08/09 10:51:17;;;;;;;3.35;1.08;;;;;;;25.33;61.71;100148.56;5086012;28;20073;-63
2023/08/09 10:54:01;;;;;;;3.13;1.00;;;;;;;25.11;61.89;100147.91;5082047;28;20016;-63
2023/08/09 10:56:41;;;;;;;;;;;;;;;24.98;62.05;100142.72;5074653;28;20024;-63
2023/08/09 10:59:15;;;;;;;4.55;1.17;;;;;;;24.82;62.25;100136.94;5076814;28;19928;-63
2023/08/09 11:01:42;;;;;;;2.72;1.20;;;;;;;24.54;61.48;100143.06;5086197;28;20020;-62
2023/08/09 11:04:18;;;;;;;7.30;1.90;;;;;;;24.48;63.43;100146.34;5084068;28;20710;-63
2023/08/09 11:06:45;;;;;;;2.88;1.13;;;;;;;24.40;64.06;100146.13;5081476;28;20050;-64
2023/08/09 11:09:19;;;;;;;3.20;1.10;;;;;;;24.19;65.90;100148.00;5086738;28;20049;-62
2023/08/09 11:11:46;;;;;;;4.57;1.15;;;;;;;24.12;66.09;100155.81;5073441;28;20032;-63
2023/08/09 11:14:14;;;;;;;4.55;1.40;;;;;;;24.11;66.11;100150.50;5083890;28;20423;-63
2023/08/09 11:16:40;;;;;;;2.50;1.10;;;;;;;24.14;66.76;100156.56;5082537;28;20039;-63
2023/08/09 11:19:08;;;;;;;2.70;1.10;;;;;;;24.20;68.49;100149.75;5076017;28;20508;-62
2023/08/09 11:21:48;;;;;;;3.03;1.10;;;;;;;24.26;68.20;100149.19;5085594;28;20020;-64
2023/08/09 11:24:18;;;;;;;2.67;1.25;;;;;;;24.27;67.47;100150.91;5080161;28;20020;-63
2023/08/09 11:26:54;;;;;;;2.05;1.30;;;;;;;24.36;66.54;100150.13;5084242;28;20372;-64
2023/08/09 11:29:22;;;;;;;2.67;1.70;;;;;;;24.49;67.14;100148.06;5085288;28;20047;-64